sensor_id;sensor_type;location;lat;lon;timestamp;P1;durP1;ratioP1;P2;durP2;ratioP2
78298;SDS011;67556;55.656;12.590;2023-07-02T00:01:55;10.23;;;4.60;;
78298;SDS011;67556;55.656;12.590;2023-07-02T00:04:38;7.53;;;4.10;;
78298;SDS011;67556;55.656;12.590;2023-07-02T00:07:18;8.93;;;3.97;;
78298;SDS011;67556;55.656;12.590;2023-07-02T00:09:54;7.78;;;3.80;;
78298;SDS011;67556;55.656;12.590;2023-07-02T00:12:23;5.32;;;3.30;;
78298;SDS011;67556;55.656;12.590;2023-07-02T00:14:59;10.23;;;3.97;;
78298;SDS011;67556;55.656;12.590;2023-07-02T00:17:45;8.80;;;3.78;;
78298;SDS011;67556;55.656;12.590;2023-07-02T00:20:13;6.15;;;3.38;;
78298;SDS011;67556;55.656;12.590;2023-07-02T00:23:00;5.38;;;3.85;;
78298;SDS011;67556;55.656;12.590;2023-07-02T00:25:39;8.35;;;3.75;;
78298;SDS011;67556;55.656;12.590;2023-07-02T00:28:10;12.77;;;6.00;;
78298;SDS011;67556;55.656;12.590;2023-07-02T00:30:59;8.80;;;3.50;;
78298;SDS011;67556;55.656;12.590;2023-07-02T00:33:47;6.65;;;3.22;;
78298;SDS011;67556;55.656;12.590;2023-07-02T00:36:18;6.78;;;3.47;;
78298;SDS011;67556;55.656;12.590;2023-07-02T00:42:07;7.80;;;3.28;;
78298;SDS011;67556;55.656;12.590;2023-07-02T00:44:44;7.47;;;3.42;;
78298;SDS011;67556;55.656;12.590;2023-07-02T00:47:12;6.60;;;3.42;;
78298;SDS011;67556;55.656;12.590;2023-07-02T00:49:39;6.38;;;3.25;;
78298;SDS011;67556;55.656;12.590;2023-07-02T00:52:26;7.68;;;3.35;;
78298;SDS011;67556;55.656;12.590;2023-07-02T00:57:41;6.13;;;3.22;;
78298;SDS011;67556;55.656;12.590;2023-07-02T01:00:30;9.55;;;3.40;;
78298;SDS011;67556;55.656;12.590;2023-07-02T01:03:05;6.97;;;3.10;;
78298;SDS011;67556;55.656;12.590;2023-07-02T01:05:31;10.98;;;3.58;;
78298;SDS011;67556;55.656;12.590;2023-07-02T01:08:20;10.00;;;3.50;;
78298;SDS011;67556;55.656;12.590;2023-07-02T01:10:54;9.77;;;4.10;;
78298;SDS011;67556;55.656;12.590;2023-07-02T01:13:21;5.85;;;3.33;;
78298;SDS011;67556;55.656;12.590;2023-07-02T01:15:56;9.05;;;3.60;;
78298;SDS011;67556;55.656;12.590;2023-07-02T01:18:48;7.53;;;3.50;;
78298;SDS011;67556;55.656;12.590;2023-07-02T01:21:17;7.53;;;3.30;;
78298;SDS011;67556;55.656;12.590;2023-07-02T01:24:04;9.75;;;3.75;;
78298;SDS011;67556;55.656;12.590;2023-07-02T01:26:43;9.95;;;3.70;;
78298;SDS011;67556;55.656;12.590;2023-07-02T01:29:32;10.02;;;4.22;;
78298;SDS011;67556;55.656;12.590;2023-07-02T01:32:20;6.95;;;3.25;;
78298;SDS011;67556;55.656;12.590;2023-07-02T01:34:47;8.80;;;3.40;;
78298;SDS011;67556;55.656;12.590;2023-07-02T01:37:29;12.55;;;3.55;;
78298;SDS011;67556;55.656;12.590;2023-07-02T01:40:11;6.65;;;3.30;;
78298;SDS011;67556;55.656;12.590;2023-07-02T01:42:46;7.82;;;3.95;;
78298;SDS011;67556;55.656;12.590;2023-07-02T01:45:23;8.48;;;3.60;;
78298;SDS011;67556;55.656;12.590;2023-07-02T01:47:51;5.78;;;3.22;;
78298;SDS011;67556;55.656;12.590;2023-07-02T01:50:33;8.43;;;3.50;;
78298;SDS011;67556;55.656;12.590;2023-07-02T01:53:07;7.18;;;3.72;;
78298;SDS011;67556;55.656;12.590;2023-07-02T01:55:33;7.40;;;3.28;;
78298;SDS011;67556;55.656;12.590;2023-07-02T01:58:18;8.75;;;3.13;;
78298;SDS011;67556;55.656;12.590;2023-07-02T02:00:59;7.75;;;3.28;;
78298;SDS011;67556;55.656;12.590;2023-07-02T02:03:44;7.20;;;3.65;;
78298;SDS011;67556;55.656;12.590;2023-07-02T02:06:13;7.22;;;3.75;;
78298;SDS011;67556;55.656;12.590;2023-07-02T02:08:57;7.35;;;4.20;;
78298;SDS011;67556;55.656;12.590;2023-07-02T02:11:50;7.50;;;3.70;;
78298;SDS011;67556;55.656;12.590;2023-07-02T02:14:34;8.80;;;3.65;;
78298;SDS011;67556;55.656;12.590;2023-07-02T02:17:13;8.38;;;3.80;;
78298;SDS011;67556;55.656;12.590;2023-07-02T02:19:55;9.00;;;3.67;;
78298;SDS011;67556;55.656;12.590;2023-07-02T02:22:31;11.82;;;3.88;;
78298;SDS011;67556;55.656;12.590;2023-07-02T02:25:17;8.30;;;3.70;;
78298;SDS011;67556;55.656;12.590;2023-07-02T02:27:56;7.80;;;3.95;;
78298;SDS011;67556;55.656;12.590;2023-07-02T02:30:41;9.80;;;4.05;;
78298;SDS011;67556;55.656;12.590;2023-07-02T02:33:18;8.98;;;4.00;;
78298;SDS011;67556;55.656;12.590;2023-07-02T02:36:03;7.70;;;3.88;;
78298;SDS011;67556;55.656;12.590;2023-07-02T02:38:49;4.95;;;3.53;;
78298;SDS011;67556;55.656;12.590;2023-07-02T02:41:29;8.38;;;3.90;;
78298;SDS011;67556;55.656;12.590;2023-07-02T02:43:55;11.68;;;4.40;;
78298;SDS011;67556;55.656;12.590;2023-07-02T02:46:28;7.90;;;3.83;;
78298;SDS011;67556;55.656;12.590;2023-07-02T02:48:54;8.02;;;3.78;;
78298;SDS011;67556;55.656;12.590;2023-07-02T02:51:39;9.50;;;4.38;;
78298;SDS011;67556;55.656;12.590;2023-07-02T02:54:18;5.47;;;3.53;;
78298;SDS011;67556;55.656;12.590;2023-07-02T02:56:54;6.15;;;4.15;;
78298;SDS011;67556;55.656;12.590;2023-07-02T02:59:36;9.18;;;4.20;;
78298;SDS011;67556;55.656;12.590;2023-07-02T03:02:03;8.95;;;4.35;;
78298;SDS011;67556;55.656;12.590;2023-07-02T03:04:30;8.55;;;3.83;;
78298;SDS011;67556;55.656;12.590;2023-07-02T03:07:15;7.57;;;3.95;;
78298;SDS011;67556;55.656;12.590;2023-07-02T03:10:00;7.35;;;4.60;;
78298;SDS011;67556;55.656;12.590;2023-07-02T03:12:40;9.40;;;4.60;;
78298;SDS011;67556;55.656;12.590;2023-07-02T03:15:21;11.82;;;3.65;;
78298;SDS011;67556;55.656;12.590;2023-07-02T03:18:06;11.13;;;5.25;;
78298;SDS011;67556;55.656;12.590;2023-07-02T03:20:34;9.65;;;4.57;;
78298;SDS011;67556;55.656;12.590;2023-07-02T03:23:19;7.15;;;4.07;;
78298;SDS011;67556;55.656;12.590;2023-07-02T03:25:45;9.45;;;4.53;;
78298;SDS011;67556;55.656;12.590;2023-07-02T03:28:18;18.45;;;4.75;;
78298;SDS011;67556;55.656;12.590;2023-07-02T03:30:50;11.68;;;3.63;;
78298;SDS011;67556;55.656;12.590;2023-07-02T03:33:17;8.77;;;4.15;;
78298;SDS011;67556;55.656;12.590;2023-07-02T03:35:44;9.85;;;4.07;;
78298;SDS011;67556;55.656;12.590;2023-07-02T03:38:30;8.68;;;3.80;;
78298;SDS011;67556;55.656;12.590;2023-07-02T03:41:14;7.63;;;3.60;;
78298;SDS011;67556;55.656;12.590;2023-07-02T03:43:42;11.05;;;3.95;;
78298;SDS011;67556;55.656;12.590;2023-07-02T03:46:15;8.15;;;4.43;;
78298;SDS011;67556;55.656;12.590;2023-07-02T03:48:43;7.07;;;3.70;;
78298;SDS011;67556;55.656;12.590;2023-07-02T03:51:10;11.98;;;4.15;;
78298;SDS011;67556;55.656;12.590;2023-07-02T03:53:57;10.40;;;4.70;;
78298;SDS011;67556;55.656;12.590;2023-07-02T03:56:29;11.30;;;5.13;;
78298;SDS011;67556;55.656;12.590;2023-07-02T03:59:15;9.55;;;4.13;;
78298;SDS011;67556;55.656;12.590;2023-07-02T04:02:00;7.65;;;4.18;;
78298;SDS011;67556;55.656;12.590;2023-07-02T04:04:26;9.40;;;4.15;;
78298;SDS011;67556;55.656;12.590;2023-07-02T04:06:59;7.82;;;4.47;;
78298;SDS011;67556;55.656;12.590;2023-07-02T04:09:25;9.32;;;4.88;;
78298;SDS011;67556;55.656;12.590;2023-07-02T04:12:10;9.75;;;4.60;;
78298;SDS011;67556;55.656;12.590;2023-07-02T04:14:55;9.02;;;4.28;;
78298;SDS011;67556;55.656;12.590;2023-07-02T04:17:21;11.82;;;4.57;;
78298;SDS011;67556;55.656;12.590;2023-07-02T04:19:48;12.57;;;4.38;;
78298;SDS011;67556;55.656;12.590;2023-07-02T04:22:15;10.20;;;4.35;;
78298;SDS011;67556;55.656;12.590;2023-07-02T04:25:01;9.02;;;4.10;;
78298;SDS011;67556;55.656;12.590;2023-07-02T04:27:36;11.02;;;4.18;;
78298;SDS011;67556;55.656;12.590;2023-07-02T04:30:10;16.02;;;4.72;;
78298;SDS011;67556;55.656;12.590;2023-07-02T04:32:56;7.78;;;4.05;;
78298;SDS011;67556;55.656;12.590;2023-07-02T04:35:41;7.53;;;4.10;;
78298;SDS011;67556;55.656;12.590;2023-07-02T04:38:17;9.55;;;4.50;;
78298;SDS011;67556;55.656;12.590;2023-07-02T04:40:50;9.80;;;4.30;;
78298;SDS011;67556;55.656;12.590;2023-07-02T04:43:30;11.30;;;4.32;;
78298;SDS011;67556;55.656;12.590;2023-07-02T04:45:58;12.07;;;4.55;;
78298;SDS011;67556;55.656;12.590;2023-07-02T04:48:43;15.32;;;5.00;;
78298;SDS011;67556;55.656;12.590;2023-07-02T04:51:27;8.95;;;5.00;;
78298;SDS011;67556;55.656;12.590;2023-07-02T04:53:53;12.35;;;4.88;;
78298;SDS011;67556;55.656;12.590;2023-07-02T04:56:19;14.35;;;5.72;;
78298;SDS011;67556;55.656;12.590;2023-07-02T04:58:52;11.10;;;4.40;;
78298;SDS011;67556;55.656;12.590;2023-07-02T05:01:26;11.75;;;5.00;;
78298;SDS011;67556;55.656;12.590;2023-07-02T05:04:12;10.15;;;5.22;;
78298;SDS011;67556;55.656;12.590;2023-07-02T05:06:42;9.93;;;4.50;;
78298;SDS011;67556;55.656;12.590;2023-07-02T05:09:15;9.32;;;4.10;;
78298;SDS011;67556;55.656;12.590;2023-07-02T05:11:41;9.98;;;4.20;;
78298;SDS011;67556;55.656;12.590;2023-07-02T05:14:22;11.57;;;4.78;;
78298;SDS011;67556;55.656;12.590;2023-07-02T05:17:04;11.68;;;4.35;;
78298;SDS011;67556;55.656;12.590;2023-07-02T05:19:30;14.75;;;5.07;;
78298;SDS011;67556;55.656;12.590;2023-07-02T05:22:03;13.52;;;4.40;;
78298;SDS011;67556;55.656;12.590;2023-07-02T05:24:33;11.68;;;4.25;;
78298;SDS011;67556;55.656;12.590;2023-07-02T05:27:18;12.18;;;4.40;;
78298;SDS011;67556;55.656;12.590;2023-07-02T05:29:44;13.98;;;4.72;;
78298;SDS011;67556;55.656;12.590;2023-07-02T05:32:25;12.90;;;4.72;;
78298;SDS011;67556;55.656;12.590;2023-07-02T05:35:04;14.07;;;5.40;;
78298;SDS011;67556;55.656;12.590;2023-07-02T05:37:33;15.98;;;5.13;;
78298;SDS011;67556;55.656;12.590;2023-07-02T05:39:59;12.48;;;4.72;;
78298;SDS011;67556;55.656;12.590;2023-07-02T05:42:34;9.77;;;4.32;;
78298;SDS011;67556;55.656;12.590;2023-07-02T05:45:14;13.27;;;4.85;;
78298;SDS011;67556;55.656;12.590;2023-07-02T05:48:01;14.70;;;5.10;;
78298;SDS011;67556;55.656;12.590;2023-07-02T05:50:27;13.93;;;4.43;;
78298;SDS011;67556;55.656;12.590;2023-07-02T05:53:04;12.70;;;5.72;;
78298;SDS011;67556;55.656;12.590;2023-07-02T05:55:30;12.25;;;4.57;;
78298;SDS011;67556;55.656;12.590;2023-07-02T05:58:15;10.63;;;4.30;;
78298;SDS011;67556;55.656;12.590;2023-07-02T06:00:43;11.05;;;4.40;;
78298;SDS011;67556;55.656;12.590;2023-07-02T06:03:24;13.93;;;4.50;;
78298;SDS011;67556;55.656;12.590;2023-07-02T06:05:56;10.43;;;3.95;;
78298;SDS011;67556;55.656;12.590;2023-07-02T06:08:41;13.98;;;4.90;;
78298;SDS011;67556;55.656;12.590;2023-07-02T06:11:19;9.95;;;3.60;;
78298;SDS011;67556;55.656;12.590;2023-07-02T06:13:48;9.50;;;4.22;;
78298;SDS011;67556;55.656;12.590;2023-07-02T06:16:37;12.35;;;4.75;;
78298;SDS011;67556;55.656;12.590;2023-07-02T06:19:11;9.60;;;3.92;;
78298;SDS011;67556;55.656;12.590;2023-07-02T06:21:57;10.30;;;3.83;;
78298;SDS011;67556;55.656;12.590;2023-07-02T06:24:30;11.68;;;4.03;;
78298;SDS011;67556;55.656;12.590;2023-07-02T06:27:03;8.43;;;4.05;;
78298;SDS011;67556;55.656;12.590;2023-07-02T06:29:38;9.88;;;4.03;;
78298;SDS011;67556;55.656;12.590;2023-07-02T06:32:24;10.23;;;3.72;;
78298;SDS011;67556;55.656;12.590;2023-07-02T06:34:51;8.18;;;3.55;;
78298;SDS011;67556;55.656;12.590;2023-07-02T06:37:36;7.65;;;3.60;;
78298;SDS011;67556;55.656;12.590;2023-07-02T06:40:19;7.10;;;3.88;;
78298;SDS011;67556;55.656;12.590;2023-07-02T06:43:05;6.18;;;2.92;;
78298;SDS011;67556;55.656;12.590;2023-07-02T06:45:31;9.35;;;3.65;;
78298;SDS011;67556;55.656;12.590;2023-07-02T06:48:12;6.63;;;3.28;;
78298;SDS011;67556;55.656;12.590;2023-07-02T06:50:43;7.63;;;3.70;;
78298;SDS011;67556;55.656;12.590;2023-07-02T06:53:19;9.07;;;3.53;;
78298;SDS011;67556;55.656;12.590;2023-07-02T06:55:46;10.35;;;4.35;;
78298;SDS011;67556;55.656;12.590;2023-07-02T06:58:25;11.65;;;4.03;;
78298;SDS011;67556;55.656;12.590;2023-07-02T07:01:02;9.32;;;3.80;;
78298;SDS011;67556;55.656;12.590;2023-07-02T07:03:47;8.50;;;4.50;;
78298;SDS011;67556;55.656;12.590;2023-07-02T07:06:20;10.95;;;4.78;;
78298;SDS011;67556;55.656;12.590;2023-07-02T07:09:01;12.52;;;4.20;;
78298;SDS011;67556;55.656;12.590;2023-07-02T07:11:38;13.90;;;4.78;;
78298;SDS011;67556;55.656;12.590;2023-07-02T07:14:11;10.32;;;4.32;;
78298;SDS011;67556;55.656;12.590;2023-07-02T07:16:43;9.38;;;3.97;;
78298;SDS011;67556;55.656;12.590;2023-07-02T07:19:28;9.75;;;4.25;;
78298;SDS011;67556;55.656;12.590;2023-07-02T07:22:02;9.25;;;4.53;;
78298;SDS011;67556;55.656;12.590;2023-07-02T07:24:45;9.82;;;4.43;;
78298;SDS011;67556;55.656;12.590;2023-07-02T07:27:11;10.15;;;4.40;;
78298;SDS011;67556;55.656;12.590;2023-07-02T07:29:44;9.88;;;4.45;;
78298;SDS011;67556;55.656;12.590;2023-07-02T07:32:11;11.75;;;4.20;;
78298;SDS011;67556;55.656;12.590;2023-07-02T07:34:56;11.70;;;4.78;;
78298;SDS011;67556;55.656;12.590;2023-07-02T07:37:36;8.88;;;4.50;;
78298;SDS011;67556;55.656;12.590;2023-07-02T07:40:21;8.45;;;4.65;;
78298;SDS011;67556;55.656;12.590;2023-07-02T07:42:48;15.52;;;4.88;;
78298;SDS011;67556;55.656;12.590;2023-07-02T07:45:15;10.65;;;4.97;;
78298;SDS011;67556;55.656;12.590;2023-07-02T07:47:47;10.07;;;4.78;;
78298;SDS011;67556;55.656;12.590;2023-07-02T07:50:16;11.40;;;3.92;;
78298;SDS011;67556;55.656;12.590;2023-07-02T07:52:44;10.65;;;4.63;;
78298;SDS011;67556;55.656;12.590;2023-07-02T07:55:20;9.60;;;4.68;;
78298;SDS011;67556;55.656;12.590;2023-07-02T07:58:02;9.20;;;4.35;;
78298;SDS011;67556;55.656;12.590;2023-07-02T08:00:37;10.55;;;4.80;;
78298;SDS011;67556;55.656;12.590;2023-07-02T08:03:22;7.63;;;4.22;;
78298;SDS011;67556;55.656;12.590;2023-07-02T08:05:55;11.05;;;4.68;;
78298;SDS011;67556;55.656;12.590;2023-07-02T08:08:24;10.38;;;4.78;;
78298;SDS011;67556;55.656;12.590;2023-07-02T08:11:09;10.85;;;4.80;;
78298;SDS011;67556;55.656;12.590;2023-07-02T08:13:36;9.77;;;5.30;;
78298;SDS011;67556;55.656;12.590;2023-07-02T08:16:21;9.70;;;4.50;;
78298;SDS011;67556;55.656;12.590;2023-07-02T08:18:47;10.73;;;4.75;;
78298;SDS011;67556;55.656;12.590;2023-07-02T08:21:33;9.10;;;5.20;;
78298;SDS011;67556;55.656;12.590;2023-07-02T08:24:01;11.48;;;4.63;;
78298;SDS011;67556;55.656;12.590;2023-07-02T08:26:33;10.68;;;5.30;;
78298;SDS011;67556;55.656;12.590;2023-07-02T08:29:00;11.98;;;5.05;;
78298;SDS011;67556;55.656;12.590;2023-07-02T08:31:45;9.75;;;4.50;;
78298;SDS011;67556;55.656;12.590;2023-07-02T08:34:12;9.88;;;4.50;;
78298;SDS011;67556;55.656;12.590;2023-07-02T08:36:44;8.23;;;4.65;;
78298;SDS011;67556;55.656;12.590;2023-07-02T08:39:14;7.18;;;4.15;;
78298;SDS011;67556;55.656;12.590;2023-07-02T08:41:55;11.00;;;4.50;;
78298;SDS011;67556;55.656;12.590;2023-07-02T08:44:27;7.60;;;4.18;;
78298;SDS011;67556;55.656;12.590;2023-07-02T08:47:06;10.02;;;4.60;;
78298;SDS011;67556;55.656;12.590;2023-07-02T08:49:39;10.27;;;5.10;;
78298;SDS011;67556;55.656;12.590;2023-07-02T08:52:24;11.20;;;5.32;;
78298;SDS011;67556;55.656;12.590;2023-07-02T08:54:58;12.20;;;5.03;;
78298;SDS011;67556;55.656;12.590;2023-07-02T08:57:47;11.20;;;5.00;;
78298;SDS011;67556;55.656;12.590;2023-07-02T09:00:28;8.13;;;5.05;;
78298;SDS011;67556;55.656;12.590;2023-07-02T09:03:15;10.95;;;4.45;;
78298;SDS011;67556;55.656;12.590;2023-07-02T09:05:48;8.98;;;4.82;;
78298;SDS011;67556;55.656;12.590;2023-07-02T09:08:22;16.38;;;4.57;;
78298;SDS011;67556;55.656;12.590;2023-07-02T09:11:09;7.63;;;4.60;;
78298;SDS011;67556;55.656;12.590;2023-07-02T09:13:46;8.35;;;4.60;;
78298;SDS011;67556;55.656;12.590;2023-07-02T09:16:33;13.20;;;5.25;;
78298;SDS011;67556;55.656;12.590;2023-07-02T09:19:17;10.20;;;4.85;;
78298;SDS011;67556;55.656;12.590;2023-07-02T09:22:05;9.88;;;5.00;;
78298;SDS011;67556;55.656;12.590;2023-07-02T09:24:32;9.85;;;5.10;;
78298;SDS011;67556;55.656;12.590;2023-07-02T09:27:18;9.13;;;4.97;;
78298;SDS011;67556;55.656;12.590;2023-07-02T09:32:42;9.27;;;5.88;;
78298;SDS011;67556;55.656;12.590;2023-07-02T09:35:09;8.98;;;4.40;;
78298;SDS011;67556;55.656;12.590;2023-07-02T09:37:35;9.48;;;5.10;;
78298;SDS011;67556;55.656;12.590;2023-07-02T09:40:14;16.88;;;4.90;;
78298;SDS011;67556;55.656;12.590;2023-07-02T09:42:45;11.88;;;4.47;;
78298;SDS011;67556;55.656;12.590;2023-07-02T09:45:34;7.80;;;4.38;;
78298;SDS011;67556;55.656;12.590;2023-07-02T09:48:20;9.80;;;4.45;;
78298;SDS011;67556;55.656;12.590;2023-07-02T09:51:09;6.85;;;4.43;;
78298;SDS011;67556;55.656;12.590;2023-07-02T09:53:35;11.05;;;4.78;;
78298;SDS011;67556;55.656;12.590;2023-07-02T09:56:20;4.43;;;2.85;;
78298;SDS011;67556;55.656;12.590;2023-07-02T09:58:48;7.60;;;2.80;;
78298;SDS011;67556;55.656;12.590;2023-07-02T10:01:33;11.13;;;2.95;;
78298;SDS011;67556;55.656;12.590;2023-07-02T10:04:09;5.10;;;2.60;;
78298;SDS011;67556;55.656;12.590;2023-07-02T10:06:55;6.63;;;3.03;;
78298;SDS011;67556;55.656;12.590;2023-07-02T10:09:34;7.63;;;3.40;;
78298;SDS011;67556;55.656;12.590;2023-07-02T10:12:19;4.93;;;3.15;;
78298;SDS011;67556;55.656;12.590;2023-07-02T10:15:08;6.30;;;3.05;;
78298;SDS011;67556;55.656;12.590;2023-07-02T10:17:40;6.22;;;2.90;;
78298;SDS011;67556;55.656;12.590;2023-07-02T10:20:13;7.32;;;3.28;;
78298;SDS011;67556;55.656;12.590;2023-07-02T10:22:59;5.47;;;2.92;;
78298;SDS011;67556;55.656;12.590;2023-07-02T10:25:27;8.85;;;3.20;;
78298;SDS011;67556;55.656;12.590;2023-07-02T10:27:54;5.88;;;2.75;;
78298;SDS011;67556;55.656;12.590;2023-07-02T10:30:31;5.63;;;2.97;;
78298;SDS011;67556;55.656;12.590;2023-07-02T10:33:11;3.80;;;2.80;;
78298;SDS011;67556;55.656;12.590;2023-07-02T10:35:56;3.58;;;2.60;;
78298;SDS011;67556;55.656;12.590;2023-07-02T10:38:41;3.50;;;2.65;;
78298;SDS011;67556;55.656;12.590;2023-07-02T10:41:22;4.82;;;2.90;;
78298;SDS011;67556;55.656;12.590;2023-07-02T10:44:06;3.78;;;2.83;;
78298;SDS011;67556;55.656;12.590;2023-07-02T10:46:44;6.70;;;3.72;;
78298;SDS011;67556;55.656;12.590;2023-07-02T10:49:30;5.40;;;3.38;;
78298;SDS011;67556;55.656;12.590;2023-07-02T10:51:59;8.15;;;4.25;;
78298;SDS011;67556;55.656;12.590;2023-07-02T10:54:38;7.63;;;4.47;;
78298;SDS011;67556;55.656;12.590;2023-07-02T10:57:20;6.25;;;3.30;;
78298;SDS011;67556;55.656;12.590;2023-07-02T11:00:04;7.80;;;3.78;;
78298;SDS011;67556;55.656;12.590;2023-07-02T11:02:46;8.20;;;3.45;;
78298;SDS011;67556;55.656;12.590;2023-07-02T11:05:12;6.30;;;3.55;;
78298;SDS011;67556;55.656;12.590;2023-07-02T11:07:41;6.53;;;3.30;;
78298;SDS011;67556;55.656;12.590;2023-07-02T11:10:09;6.20;;;3.28;;
78298;SDS011;67556;55.656;12.590;2023-07-02T11:12:57;5.30;;;2.92;;
78298;SDS011;67556;55.656;12.590;2023-07-02T11:15:42;6.22;;;3.35;;
78298;SDS011;67556;55.656;12.590;2023-07-02T11:18:24;8.57;;;3.47;;
78298;SDS011;67556;55.656;12.590;2023-07-02T11:20:56;6.53;;;2.75;;
78298;SDS011;67556;55.656;12.590;2023-07-02T11:23:47;5.50;;;2.80;;
78298;SDS011;67556;55.656;12.590;2023-07-02T11:26:35;8.32;;;3.50;;
78298;SDS011;67556;55.656;12.590;2023-07-02T11:29:02;7.05;;;3.13;;
78298;SDS011;67556;55.656;12.590;2023-07-02T11:31:35;5.45;;;3.17;;
78298;SDS011;67556;55.656;12.590;2023-07-02T11:34:19;6.55;;;2.88;;
78298;SDS011;67556;55.656;12.590;2023-07-02T11:36:55;6.30;;;3.30;;
78298;SDS011;67556;55.656;12.590;2023-07-02T11:39:27;6.50;;;3.22;;
78298;SDS011;67556;55.656;12.590;2023-07-02T11:41:54;6.93;;;3.63;;
78298;SDS011;67556;55.656;12.590;2023-07-02T11:44:22;10.07;;;3.33;;
78298;SDS011;67556;55.656;12.590;2023-07-02T11:46:54;8.55;;;3.65;;
78298;SDS011;67556;55.656;12.590;2023-07-02T11:49:31;6.20;;;2.70;;
78298;SDS011;67556;55.656;12.590;2023-07-02T11:51:58;5.55;;;2.53;;
78298;SDS011;67556;55.656;12.590;2023-07-02T11:54:24;8.07;;;2.90;;
78298;SDS011;67556;55.656;12.590;2023-07-02T11:56:51;6.85;;;2.80;;
78298;SDS011;67556;55.656;12.590;2023-07-02T11:59:17;2.97;;;2.00;;
78298;SDS011;67556;55.656;12.590;2023-07-02T12:01:44;6.78;;;3.05;;
78298;SDS011;67556;55.656;12.590;2023-07-02T12:04:10;5.70;;;2.95;;
78298;SDS011;67556;55.656;12.590;2023-07-02T12:06:39;7.25;;;2.50;;
78298;SDS011;67556;55.656;12.590;2023-07-02T12:09:05;4.75;;;2.80;;
78298;SDS011;67556;55.656;12.590;2023-07-02T12:11:32;6.65;;;2.58;;
78298;SDS011;67556;55.656;12.590;2023-07-02T12:13:59;4.78;;;2.30;;
78298;SDS011;67556;55.656;12.590;2023-07-02T12:16:25;5.07;;;3.15;;
78298;SDS011;67556;55.656;12.590;2023-07-02T12:18:52;4.32;;;2.30;;
78298;SDS011;67556;55.656;12.590;2023-07-02T12:21:18;9.05;;;3.25;;
78298;SDS011;67556;55.656;12.590;2023-07-02T12:23:46;6.78;;;2.60;;
78298;SDS011;67556;55.656;12.590;2023-07-02T12:26:13;4.40;;;2.63;;
78298;SDS011;67556;55.656;12.590;2023-07-02T12:28:39;4.45;;;2.65;;
78298;SDS011;67556;55.656;12.590;2023-07-02T12:31:07;3.95;;;2.60;;
78298;SDS011;67556;55.656;12.590;2023-07-02T12:33:33;4.05;;;2.33;;
78298;SDS011;67556;55.656;12.590;2023-07-02T12:36:00;6.07;;;2.80;;
78298;SDS011;67556;55.656;12.590;2023-07-02T12:38:28;7.10;;;2.80;;
78298;SDS011;67556;55.656;12.590;2023-07-02T12:40:56;7.07;;;3.83;;
78298;SDS011;67556;55.656;12.590;2023-07-02T12:43:22;7.30;;;3.50;;
78298;SDS011;67556;55.656;12.590;2023-07-02T12:45:49;7.78;;;3.03;;
78298;SDS011;67556;55.656;12.590;2023-07-02T12:48:16;6.75;;;2.90;;
78298;SDS011;67556;55.656;12.590;2023-07-02T12:50:52;6.32;;;2.90;;
78298;SDS011;67556;55.656;12.590;2023-07-02T12:53:19;5.63;;;2.75;;
78298;SDS011;67556;55.656;12.590;2023-07-02T12:55:46;5.43;;;3.00;;
78298;SDS011;67556;55.656;12.590;2023-07-02T12:58:13;5.68;;;3.10;;
78298;SDS011;67556;55.656;12.590;2023-07-02T13:00:40;7.55;;;3.38;;
78298;SDS011;67556;55.656;12.590;2023-07-02T13:03:11;7.90;;;3.00;;
78298;SDS011;67556;55.656;12.590;2023-07-02T13:05:38;5.32;;;3.08;;
78298;SDS011;67556;55.656;12.590;2023-07-02T13:08:05;5.30;;;2.70;;
78298;SDS011;67556;55.656;12.590;2023-07-02T13:10:32;5.05;;;2.33;;
78298;SDS011;67556;55.656;12.590;2023-07-02T13:12:59;5.07;;;2.33;;
78298;SDS011;67556;55.656;12.590;2023-07-02T13:15:27;5.18;;;2.65;;
78298;SDS011;67556;55.656;12.590;2023-07-02T13:17:54;6.03;;;2.70;;
78298;SDS011;67556;55.656;12.590;2023-07-02T13:20:20;8.55;;;2.85;;
78298;SDS011;67556;55.656;12.590;2023-07-02T13:22:47;3.88;;;2.70;;
78298;SDS011;67556;55.656;12.590;2023-07-02T13:25:20;4.00;;;2.53;;
78298;SDS011;67556;55.656;12.590;2023-07-02T13:27:56;4.82;;;2.25;;
78298;SDS011;67556;55.656;12.590;2023-07-02T13:30:22;5.25;;;2.40;;
78298;SDS011;67556;55.656;12.590;2023-07-02T13:32:51;4.25;;;2.33;;
78298;SDS011;67556;55.656;12.590;2023-07-02T13:35:19;4.72;;;2.15;;
78298;SDS011;67556;55.656;12.590;2023-07-02T13:37:47;4.13;;;2.50;;
78298;SDS011;67556;55.656;12.590;2023-07-02T13:40:14;4.78;;;2.33;;
78298;SDS011;67556;55.656;12.590;2023-07-02T13:42:42;4.55;;;2.30;;
78298;SDS011;67556;55.656;12.590;2023-07-02T13:45:09;5.55;;;2.50;;
78298;SDS011;67556;55.656;12.590;2023-07-02T13:47:36;3.10;;;2.30;;
78298;SDS011;67556;55.656;12.590;2023-07-02T13:50:04;5.07;;;2.25;;
78298;SDS011;67556;55.656;12.590;2023-07-02T13:52:31;5.18;;;2.80;;
78298;SDS011;67556;55.656;12.590;2023-07-02T13:54:58;4.82;;;2.60;;
78298;SDS011;67556;55.656;12.590;2023-07-02T13:57:25;4.78;;;2.30;;
78298;SDS011;67556;55.656;12.590;2023-07-02T13:59:53;5.25;;;2.70;;
78298;SDS011;67556;55.656;12.590;2023-07-02T14:02:20;8.65;;;3.10;;
78298;SDS011;67556;55.656;12.590;2023-07-02T14:04:46;6.43;;;2.38;;
78298;SDS011;67556;55.656;12.590;2023-07-02T14:07:13;6.93;;;2.92;;
78298;SDS011;67556;55.656;12.590;2023-07-02T14:09:40;5.72;;;2.47;;
78298;SDS011;67556;55.656;12.590;2023-07-02T14:12:07;7.00;;;2.72;;
78298;SDS011;67556;55.656;12.590;2023-07-02T14:14:34;3.97;;;2.55;;
78298;SDS011;67556;55.656;12.590;2023-07-02T14:17:02;3.95;;;2.47;;
78298;SDS011;67556;55.656;12.590;2023-07-02T14:19:28;6.88;;;2.47;;
78298;SDS011;67556;55.656;12.590;2023-07-02T14:22:14;6.57;;;2.80;;
78298;SDS011;67556;55.656;12.590;2023-07-02T14:24:40;8.02;;;3.00;;
78298;SDS011;67556;55.656;12.590;2023-07-02T14:27:26;8.85;;;2.75;;
78298;SDS011;67556;55.656;12.590;2023-07-02T14:29:52;6.70;;;2.70;;
78298;SDS011;67556;55.656;12.590;2023-07-02T14:32:26;6.50;;;2.80;;
78298;SDS011;67556;55.656;12.590;2023-07-02T14:35:11;7.18;;;2.72;;
78298;SDS011;67556;55.656;12.590;2023-07-02T14:37:38;5.85;;;2.88;;
78298;SDS011;67556;55.656;12.590;2023-07-02T14:40:05;6.28;;;2.60;;
78298;SDS011;67556;55.656;12.590;2023-07-02T14:42:46;5.43;;;2.70;;
78298;SDS011;67556;55.656;12.590;2023-07-02T14:45:16;4.95;;;2.47;;
78298;SDS011;67556;55.656;12.590;2023-07-02T14:47:45;5.63;;;2.10;;
78298;SDS011;67556;55.656;12.590;2023-07-02T14:50:15;6.88;;;2.38;;
78298;SDS011;67556;55.656;12.590;2023-07-02T14:53:00;5.78;;;2.13;;
78298;SDS011;67556;55.656;12.590;2023-07-02T14:55:27;4.80;;;2.10;;
78298;SDS011;67556;55.656;12.590;2023-07-02T14:57:55;4.22;;;2.50;;
78298;SDS011;67556;55.656;12.590;2023-07-02T15:00:29;6.40;;;2.47;;
78298;SDS011;67556;55.656;12.590;2023-07-02T15:03:07;4.97;;;2.30;;
78298;SDS011;67556;55.656;12.590;2023-07-02T15:05:35;5.40;;;2.50;;
78298;SDS011;67556;55.656;12.590;2023-07-02T15:08:18;4.72;;;2.50;;
78298;SDS011;67556;55.656;12.590;2023-07-02T15:10:53;6.45;;;2.30;;
78298;SDS011;67556;55.656;12.590;2023-07-02T15:13:32;5.00;;;2.35;;
78298;SDS011;67556;55.656;12.590;2023-07-02T15:16:01;4.85;;;2.38;;
78298;SDS011;67556;55.656;12.590;2023-07-02T15:18:30;6.15;;;2.65;;
78298;SDS011;67556;55.656;12.590;2023-07-02T15:21:15;7.57;;;2.17;;
78298;SDS011;67556;55.656;12.590;2023-07-02T15:24:02;6.25;;;3.08;;
78298;SDS011;67556;55.656;12.590;2023-07-02T15:26:32;5.82;;;2.53;;